Cranberry Isles, Maine
Current Conditions -  °F | °C
As of 3:35 PM on Thursday 25 Dec 2014 (Local Time) from KBHB Reporting Station
Few Clouds Few Clouds  
Wind Chill: 44°   Ceiling: Unl
Heat Index: 48°   Visibility: 10mi
Dew Point: 43°   Wind: 10mph
Humidity: 82%   Direction: 240°WSW
Pressure: 29.5"   Gusts: NA
Location:  44.25°N, 68.26°W
Report Text: KBHB 252035Z AUTO 24009KT 10SM FEW045 09/06 A2950 RMK AO1
Loading
Personal Weather Stations






























Interactive Weather Map New forecast layout! Learn more

10-Day Weather Forecast

Advertisements
Track Severe Weather on mobile